createdAt,value
2024-01-25T00:00:33.035Z,4.73
2024-01-25T00:03:03.025Z,5.53
2024-01-25T00:05:33.656Z,5.17
2024-01-25T00:08:06.462Z,4.93
2024-01-25T00:10:36.438Z,4.60
2024-01-25T00:13:06.415Z,4.43
2024-01-25T00:15:36.340Z,4.33
2024-01-25T00:18:06.434Z,4.87
2024-01-25T00:20:36.587Z,4.23
2024-01-25T00:23:09.033Z,4.63
2024-01-25T00:25:38.833Z,4.90
2024-01-25T00:28:09.138Z,5.00
2024-01-25T00:30:39.119Z,4.77
2024-01-25T00:33:09.491Z,5.40
2024-01-25T00:35:43.464Z,5.40
2024-01-25T00:38:17.132Z,6.57
2024-01-25T00:40:47.865Z,5.67
2024-01-25T00:43:18.568Z,5.50
2024-01-25T00:45:49.148Z,6.40
2024-01-25T00:48:19.658Z,6.13
2024-01-25T00:50:50.126Z,5.90
2024-01-25T00:53:24.336Z,6.13
2024-01-25T00:55:54.941Z,4.80
2024-01-25T00:58:25.823Z,4.80
2024-01-25T01:00:56.548Z,4.87
2024-01-25T01:03:27.624Z,5.33
2024-01-25T01:05:59.349Z,5.73
2024-01-25T01:08:32.884Z,4.70
2024-01-25T01:11:02.839Z,4.50
2024-01-25T01:13:32.933Z,5.10
2024-01-25T01:16:02.921Z,4.57
2024-01-25T01:18:33.005Z,4.70
2024-01-25T01:21:02.893Z,5.30
2024-01-25T01:23:35.269Z,4.93
2024-01-25T01:26:05.118Z,4.63
2024-01-25T01:28:34.919Z,5.27
2024-01-25T01:31:04.742Z,5.00
2024-01-25T01:33:34.790Z,5.43
2024-01-25T01:36:04.741Z,5.17
2024-01-25T01:38:37.158Z,4.40
2024-01-25T01:41:07.328Z,4.87
2024-01-25T01:43:37.140Z,5.03
2024-01-25T01:46:13.950Z,5.03
2024-01-25T01:48:44.296Z,5.33
2024-01-25T01:51:14.802Z,4.53
2024-01-25T01:53:47.718Z,4.60
2024-01-25T01:56:21.296Z,4.77
2024-01-25T01:58:52.492Z,3.93
2024-01-25T02:01:23.131Z,4.20
2024-01-25T02:03:53.171Z,4.30
2024-01-25T02:06:23.728Z,3.73
2024-01-25T02:08:59.808Z,4.23
2024-01-25T02:11:29.934Z,4.53
2024-01-25T02:14:00.365Z,4.80
2024-01-25T02:16:30.556Z,4.10
2024-01-25T02:19:00.821Z,4.63
2024-01-25T02:21:30.856Z,5.67
2024-01-25T02:24:03.709Z,4.37
2024-01-25T02:26:33.965Z,4.57
2024-01-25T02:29:06.140Z,4.33
2024-01-25T02:31:36.025Z,5.50
2024-01-25T02:34:06.080Z,4.20
2024-01-25T02:36:36.220Z,4.27
2024-01-25T02:39:09.229Z,4.43
2024-01-25T02:41:39.049Z,3.67
2024-01-25T02:44:08.848Z,3.33
2024-01-25T02:46:39.247Z,4.70
2024-01-25T02:49:09.402Z,4.50
2024-01-25T02:51:39.455Z,2.93
2024-01-25T02:54:11.938Z,3.83
2024-01-25T02:56:41.799Z,4.77
2024-01-25T02:59:11.693Z,5.20
2024-01-25T03:01:43.021Z,3.87
2024-01-25T03:04:13.279Z,4.27
2024-01-25T03:06:43.363Z,4.30
2024-01-25T03:09:16.184Z,4.30
2024-01-25T03:11:46.156Z,4.53
2024-01-25T03:14:16.112Z,4.17
2024-01-25T03:16:45.959Z,4.13
2024-01-25T03:19:19.214Z,4.33
2024-01-25T03:21:51.736Z,3.90
2024-01-25T03:24:25.258Z,4.13
2024-01-25T03:26:55.519Z,4.47
2024-01-25T03:29:27.827Z,4.70
2024-01-25T03:31:59.218Z,4.90
2024-01-25T03:34:29.653Z,4.63
2024-01-25T03:36:59.798Z,3.67
2024-01-25T03:39:32.342Z,4.07
2024-01-25T03:42:02.294Z,4.67
2024-01-25T03:44:47.491Z,4.60
2024-01-25T03:47:17.422Z,4.30
2024-01-25T03:49:48.269Z,4.13
2024-01-25T03:52:19.977Z,4.70
2024-01-25T03:54:55.308Z,3.67
2024-01-25T03:57:25.473Z,4.33
2024-01-25T03:59:55.391Z,4.50
2024-01-25T04:02:25.425Z,4.00
2024-01-25T04:04:55.454Z,4.43
2024-01-25T04:07:25.409Z,4.20
2024-01-25T04:09:57.957Z,4.87
2024-01-25T04:12:28.131Z,6.20
2024-01-25T04:14:58.459Z,4.17
2024-01-25T04:17:32.916Z,4.73
2024-01-25T04:20:03.185Z,4.73
2024-01-25T04:22:33.379Z,4.60
2024-01-25T04:25:06.137Z,4.80
2024-01-25T04:27:46.666Z,4.30
2024-01-25T04:30:19.876Z,4.33
2024-01-25T04:32:51.254Z,4.57
2024-01-25T04:35:21.879Z,4.60
2024-01-25T04:37:52.215Z,4.50
2024-01-25T04:40:24.795Z,4.30
2024-01-25T04:42:54.776Z,3.90
2024-01-25T04:45:24.670Z,4.40
2024-01-25T04:47:54.549Z,4.67
2024-01-25T04:50:24.728Z,4.17
2024-01-25T04:52:54.751Z,4.17
2024-01-25T04:55:27.251Z,4.43
2024-01-25T04:57:57.296Z,3.70
2024-01-25T05:00:27.862Z,3.20
2024-01-25T05:02:57.726Z,3.67
2024-01-25T05:05:27.579Z,3.47
2024-01-25T05:07:57.553Z,4.40
2024-01-25T05:10:30.478Z,4.30
2024-01-25T05:13:00.385Z,3.57
2024-01-25T05:15:30.604Z,4.73
2024-01-25T05:18:00.823Z,4.80
2024-01-25T05:20:34.417Z,3.73
2024-01-25T05:23:05.243Z,3.90
2024-01-25T05:25:40.117Z,4.07
2024-01-25T05:28:10.558Z,4.23
2024-01-25T05:30:40.713Z,3.93
2024-01-25T05:33:13.535Z,4.43
2024-01-25T05:35:47.788Z,4.00
2024-01-25T05:38:25.657Z,3.67
2024-01-25T05:40:58.339Z,3.83
2024-01-25T05:43:28.798Z,4.80
2024-01-25T05:46:04.620Z,4.07
2024-01-25T05:48:36.424Z,3.57
2024-01-25T05:51:06.700Z,3.67
2024-01-25T05:53:39.750Z,4.20
2024-01-25T05:56:12.501Z,4.67
2024-01-25T05:58:43.776Z,4.63
2024-01-25T06:01:20.516Z,4.43
2024-01-25T06:03:50.622Z,5.20
2024-01-25T06:06:22.212Z,4.20
2024-01-25T06:09:02.240Z,4.07
2024-01-25T06:11:43.835Z,5.23
2024-01-25T06:14:19.418Z,5.23
2024-01-25T06:16:49.706Z,5.17
2024-01-25T06:19:23.849Z,4.23
2024-01-25T06:21:54.389Z,4.53
2024-01-25T06:24:27.128Z,5.53
2024-01-25T06:26:59.600Z,5.13
2024-01-25T06:29:31.809Z,4.43
2024-01-25T06:32:05.662Z,4.07
2024-01-25T06:34:37.748Z,4.47
2024-01-25T06:37:08.154Z,4.90
2024-01-25T06:39:38.458Z,4.67
2024-01-25T06:42:12.417Z,5.90
2024-01-25T06:44:42.287Z,5.30
2024-01-25T06:47:12.139Z,4.60
2024-01-25T06:49:42.156Z,5.90
2024-01-25T06:52:16.200Z,5.50
2024-01-25T06:54:57.977Z,5.13
2024-01-25T06:57:35.368Z,5.00
2024-01-25T07:00:05.381Z,4.87
2024-01-25T07:02:35.552Z,5.57
2024-01-25T07:05:06.025Z,5.63
2024-01-25T07:07:36.352Z,5.40
2024-01-25T07:10:19.084Z,4.80
2024-01-25T07:12:51.866Z,6.50
2024-01-25T07:15:22.225Z,5.40
2024-01-25T07:17:52.070Z,5.87
2024-01-25T07:20:24.315Z,5.67
2024-01-25T07:22:54.573Z,5.20
2024-01-25T07:25:24.561Z,5.90
2024-01-25T07:27:57.166Z,6.03
2024-01-25T07:30:27.170Z,6.90
2024-01-25T07:32:57.092Z,4.97
2024-01-25T07:35:39.019Z,5.60
2024-01-25T07:38:09.441Z,5.70
2024-01-25T07:40:44.833Z,6.57
2024-01-25T07:43:17.817Z,7.00
2024-01-25T07:45:52.813Z,6.57
2024-01-25T07:48:25.981Z,7.60
2024-01-25T07:50:55.907Z,7.17
2024-01-25T07:53:26.087Z,7.93
2024-01-25T07:55:55.981Z,6.70
2024-01-25T07:58:31.874Z,6.20
2024-01-25T08:01:01.933Z,6.57
2024-01-25T08:03:31.952Z,6.43
2024-01-25T08:06:02.228Z,6.73
2024-01-25T08:08:32.534Z,7.53
2024-01-25T08:11:02.447Z,7.10
2024-01-25T08:13:36.024Z,6.30
2024-01-25T08:16:08.448Z,6.47
2024-01-25T08:18:38.459Z,5.67
2024-01-25T08:21:08.938Z,5.70
2024-01-25T08:23:38.799Z,5.93
2024-01-25T08:26:10.498Z,5.97
2024-01-25T08:28:44.729Z,6.20
2024-01-25T08:31:15.135Z,9.47
2024-01-25T08:33:49.295Z,9.37
2024-01-25T08:36:21.759Z,10.23
2024-01-25T08:38:51.754Z,10.40
2024-01-25T08:41:21.949Z,8.53
2024-01-25T08:43:55.072Z,7.47
2024-01-25T08:46:25.690Z,6.23
2024-01-25T08:48:55.756Z,7.53
2024-01-25T08:51:28.109Z,7.13
2024-01-25T08:53:57.957Z,6.47
2024-01-25T08:56:27.739Z,8.07
2024-01-25T08:59:00.253Z,6.93
2024-01-25T09:01:30.258Z,6.47
2024-01-25T09:04:04.449Z,6.33
2024-01-25T09:06:34.692Z,7.00
2024-01-25T09:09:06.891Z,6.80
2024-01-25T09:11:37.160Z,6.90
2024-01-25T09:14:09.921Z,7.73
2024-01-25T09:16:40.135Z,6.80
2024-01-25T09:19:10.907Z,8.30
2024-01-25T09:21:44.829Z,7.93
2024-01-25T09:24:14.787Z,7.77
2024-01-25T09:26:44.772Z,8.23
2024-01-25T09:29:17.626Z,8.67
2024-01-25T09:31:47.647Z,7.73
2024-01-25T09:34:17.955Z,7.77
2024-01-25T09:36:48.131Z,8.20
2024-01-25T09:39:21.104Z,8.37
2024-01-25T09:41:51.326Z,8.27
2024-01-25T09:44:25.156Z,9.43
2024-01-25T09:46:56.122Z,8.47
2024-01-25T09:49:26.344Z,9.37
2024-01-25T09:51:57.079Z,8.93
2024-01-25T09:54:30.887Z,9.90
2024-01-25T09:57:00.956Z,9.17
2024-01-25T09:59:33.510Z,10.93
2024-01-25T10:02:06.988Z,9.33
2024-01-25T10:04:36.980Z,9.10
2024-01-25T10:07:07.507Z,10.00
2024-01-25T10:09:43.755Z,9.47
2024-01-25T10:12:18.553Z,10.00
2024-01-25T10:14:52.820Z,8.87
2024-01-25T10:17:22.978Z,10.23
2024-01-25T10:19:53.117Z,10.33
2024-01-25T10:22:24.413Z,11.17
2024-01-25T10:24:58.075Z,9.87
2024-01-25T10:27:28.301Z,9.57
2024-01-25T10:30:02.240Z,10.43
2024-01-25T10:32:32.991Z,9.83
2024-01-25T10:35:08.758Z,9.97
2024-01-25T10:37:42.464Z,11.23
2024-01-25T10:40:14.934Z,12.17
2024-01-25T10:42:45.446Z,9.87
2024-01-25T10:45:18.409Z,10.53
2024-01-25T10:47:53.070Z,10.00
2024-01-25T10:50:23.600Z,11.13
2024-01-25T10:52:53.671Z,11.63
2024-01-25T10:55:27.133Z,11.13
2024-01-25T10:57:57.280Z,12.33
2024-01-25T11:00:29.864Z,12.20
2024-01-25T11:02:59.742Z,11.70
2024-01-25T11:05:30.414Z,11.70
2024-01-25T11:08:00.502Z,11.90
2024-01-25T11:10:31.247Z,12.00
2024-01-25T11:13:03.098Z,12.93
2024-01-25T11:15:38.120Z,13.20
2024-01-25T11:18:12.520Z,13.93
2024-01-25T11:20:42.966Z,13.33
2024-01-25T11:23:12.967Z,11.40
2024-01-25T11:25:42.848Z,12.77
2024-01-25T11:28:12.838Z,13.00
2024-01-25T11:30:45.878Z,13.30
2024-01-25T11:33:16.131Z,13.07
2024-01-25T11:35:46.115Z,13.60
2024-01-25T11:38:16.124Z,12.33
2024-01-25T11:40:46.349Z,13.97
2024-01-25T11:43:16.564Z,13.80
2024-01-25T11:45:49.120Z,15.57
2024-01-25T11:48:19.124Z,15.50
2024-01-25T11:50:49.859Z,15.77
2024-01-25T11:53:19.788Z,15.67
2024-01-25T11:55:49.595Z,15.03
2024-01-25T11:58:19.782Z,14.70
2024-01-25T12:00:52.770Z,13.53
2024-01-25T12:03:23.016Z,13.63
2024-01-25T12:05:53.056Z,13.50
2024-01-25T12:08:23.342Z,14.27
2024-01-25T12:10:53.613Z,14.43
2024-01-25T12:13:23.518Z,13.90
2024-01-25T12:15:57.276Z,14.50
2024-01-25T12:18:27.383Z,16.13
2024-01-25T12:20:57.760Z,12.60
2024-01-25T12:23:33.959Z,15.57
2024-01-25T12:26:05.716Z,14.17
2024-01-25T12:28:36.601Z,14.57
2024-01-25T12:31:10.634Z,14.13
2024-01-25T12:33:42.495Z,15.33
2024-01-25T12:36:12.818Z,17.20
2024-01-25T12:38:42.863Z,15.83
2024-01-25T12:41:12.932Z,16.53
2024-01-25T12:43:45.762Z,16.63
2024-01-25T12:46:26.361Z,16.20
2024-01-25T12:48:59.524Z,14.50
2024-01-25T12:51:30.328Z,13.07
2024-01-25T12:54:00.608Z,14.27
2024-01-25T12:56:30.609Z,13.90
2024-01-25T12:59:00.641Z,14.33
2024-01-25T13:01:33.570Z,14.20
2024-01-25T13:04:04.304Z,13.50
2024-01-25T13:06:34.323Z,13.30
2024-01-25T13:09:05.053Z,12.67
2024-01-25T13:11:34.917Z,14.17
2024-01-25T13:14:04.785Z,13.97
2024-01-25T13:16:37.331Z,14.80
2024-01-25T13:19:10.171Z,15.20
2024-01-25T13:21:40.803Z,13.77
2024-01-25T13:24:11.001Z,14.17
2024-01-25T13:26:41.014Z,14.13
2024-01-25T13:29:14.168Z,13.30
2024-01-25T13:31:49.102Z,12.70
2024-01-25T13:34:19.156Z,13.63
2024-01-25T13:36:49.150Z,14.23
2024-01-25T13:39:19.019Z,13.50
2024-01-25T13:41:50.134Z,12.87
2024-01-25T13:44:20.054Z,13.93
2024-01-25T13:46:52.594Z,13.67
2024-01-25T13:49:22.511Z,14.63
2024-01-25T13:51:52.507Z,13.47
2024-01-25T13:54:22.419Z,14.37
2024-01-25T13:56:55.053Z,15.07
2024-01-25T13:59:26.921Z,13.90
2024-01-25T14:01:59.639Z,14.03
2024-01-25T14:04:29.594Z,13.13
2024-01-25T14:07:02.686Z,13.87
2024-01-25T14:09:33.590Z,13.27
2024-01-25T14:12:04.128Z,14.43
2024-01-25T14:14:34.152Z,13.17
2024-01-25T14:17:07.323Z,12.50
2024-01-25T14:19:37.527Z,13.40
2024-01-25T14:22:21.005Z,13.07
2024-01-25T14:24:57.740Z,13.07
2024-01-25T14:27:28.219Z,13.03
2024-01-25T14:29:58.374Z,12.43
2024-01-25T14:32:31.053Z,12.90
2024-01-25T14:35:01.101Z,12.73
2024-01-25T14:37:32.776Z,12.30
2024-01-25T14:40:16.690Z,12.33
2024-01-25T14:42:53.725Z,10.90
2024-01-25T14:45:24.235Z,13.07
2024-01-25T14:47:58.925Z,13.00
2024-01-25T14:50:28.897Z,11.80
2024-01-25T14:52:58.739Z,12.77
2024-01-25T14:55:28.655Z,11.93
2024-01-25T14:57:58.532Z,10.70
2024-01-25T15:00:28.450Z,11.37
2024-01-25T15:03:00.965Z,10.20
2024-01-25T15:05:30.792Z,11.10
2024-01-25T15:08:00.851Z,11.90
2024-01-25T15:10:32.651Z,10.80
2024-01-25T15:13:02.858Z,11.80
2024-01-25T15:15:35.235Z,9.90
2024-01-25T15:18:09.148Z,10.10
2024-01-25T15:20:39.567Z,10.90
2024-01-25T15:23:10.292Z,11.03
2024-01-25T15:25:40.137Z,10.60
2024-01-25T15:28:10.227Z,9.27
2024-01-25T15:30:40.272Z,10.30
2024-01-25T15:33:13.048Z,10.13
2024-01-25T15:35:42.969Z,10.07
2024-01-25T15:38:16.770Z,10.67
2024-01-25T15:40:46.697Z,10.63
2024-01-25T15:43:17.386Z,9.37
2024-01-25T15:45:47.613Z,10.73
2024-01-25T15:48:20.137Z,10.30
2024-01-25T15:50:51.486Z,10.13
2024-01-25T15:53:21.274Z,9.47
2024-01-25T15:55:53.643Z,9.70
2024-01-25T15:58:23.771Z,10.63
2024-01-25T16:00:53.687Z,9.87
2024-01-25T16:03:26.329Z,9.83
2024-01-25T16:05:57.136Z,10.33
2024-01-25T16:08:27.268Z,9.37
2024-01-25T16:10:57.134Z,9.80
2024-01-25T16:13:26.969Z,9.50
2024-01-25T16:15:57.023Z,9.23
2024-01-25T16:18:29.712Z,8.27
2024-01-25T16:20:59.861Z,10.13
2024-01-25T16:23:29.869Z,9.30
2024-01-25T16:25:59.750Z,9.27
2024-01-25T16:28:29.607Z,10.57
2024-01-25T16:31:01.649Z,9.37
2024-01-25T16:33:34.394Z,8.90
2024-01-25T16:36:04.397Z,9.73
2024-01-25T16:38:34.473Z,9.03
2024-01-25T16:41:04.304Z,8.63
2024-01-25T16:43:34.280Z,9.13
2024-01-25T16:46:04.325Z,8.60
2024-01-25T16:48:37.069Z,8.67
2024-01-25T16:51:07.772Z,8.93
2024-01-25T16:53:37.623Z,8.40
2024-01-25T16:56:08.189Z,8.20
2024-01-25T16:58:38.040Z,7.20
2024-01-25T17:01:09.498Z,8.00
2024-01-25T17:03:42.145Z,8.27
2024-01-25T17:06:12.047Z,7.43
2024-01-25T17:08:41.991Z,9.10
2024-01-25T17:11:12.710Z,7.70
2024-01-25T17:13:42.610Z,7.17
2024-01-25T17:16:12.494Z,7.30
2024-01-25T17:18:45.130Z,7.63
2024-01-25T17:21:18.021Z,7.23
2024-01-25T17:23:51.329Z,7.20
2024-01-25T17:26:24.744Z,7.00
2024-01-25T17:28:55.115Z,7.40
2024-01-25T17:31:25.132Z,6.33
2024-01-25T17:33:57.947Z,6.43
2024-01-25T17:36:28.348Z,6.03
2024-01-25T17:38:58.343Z,7.80
2024-01-25T17:41:28.328Z,5.87
2024-01-25T17:43:58.773Z,6.17
2024-01-25T17:46:28.707Z,6.00
2024-01-25T17:49:01.557Z,5.90
2024-01-25T17:51:31.731Z,6.30
2024-01-25T17:54:07.518Z,6.23
2024-01-25T17:56:43.444Z,6.33
2024-01-25T17:59:17.001Z,5.90
2024-01-25T18:01:47.063Z,6.07
2024-01-25T18:04:19.515Z,5.57
2024-01-25T18:06:49.448Z,5.37
2024-01-25T18:09:19.380Z,4.97
2024-01-25T18:11:49.378Z,5.50
2024-01-25T18:14:19.249Z,5.43
2024-01-25T18:16:49.017Z,5.37
2024-01-25T18:19:21.769Z,5.57
2024-01-25T18:21:55.575Z,6.00
2024-01-25T18:24:26.150Z,4.90
2024-01-25T18:27:01.026Z,5.67
2024-01-25T18:29:41.196Z,5.80
2024-01-25T18:32:12.661Z,5.53
2024-01-25T18:34:47.266Z,6.37
2024-01-25T18:37:19.944Z,5.20
2024-01-25T18:39:51.875Z,6.43
2024-01-25T18:42:23.444Z,6.03
2024-01-25T18:44:53.388Z,5.87
2024-01-25T18:47:24.890Z,6.90
2024-01-25T18:49:57.621Z,7.23
2024-01-25T18:52:27.497Z,6.87
2024-01-25T18:54:58.147Z,5.50
2024-01-25T18:57:28.688Z,5.77
2024-01-25T18:59:59.365Z,6.70
2024-01-25T19:02:29.870Z,7.47
2024-01-25T19:05:03.423Z,7.77
2024-01-25T19:07:34.021Z,8.53
2024-01-25T19:10:04.082Z,10.10
2024-01-25T19:12:33.999Z,12.83
2024-01-25T19:15:06.014Z,20.03
2024-01-25T19:17:35.876Z,25.20
2024-01-25T19:20:09.346Z,11.93
2024-01-25T19:22:39.155Z,8.17
2024-01-25T19:25:09.386Z,6.70
2024-01-25T19:27:39.514Z,8.03
2024-01-25T19:30:08.333Z,6.97
2024-01-25T19:32:38.419Z,7.20
2024-01-25T19:35:23.683Z,8.10
2024-01-25T19:38:00.083Z,7.03
2024-01-25T19:40:48.625Z,8.27
2024-01-25T19:43:21.446Z,9.23
2024-01-25T19:46:03.119Z,11.10
2024-01-25T19:48:38.934Z,11.43
2024-01-25T19:51:25.432Z,9.20
2024-01-25T19:54:10.095Z,9.60
2024-01-25T19:56:40.017Z,8.47
2024-01-25T19:59:11.139Z,8.70
2024-01-25T20:01:44.689Z,10.67
2024-01-25T20:04:18.135Z,11.77
2024-01-25T20:06:54.290Z,12.83
2024-01-25T20:09:33.287Z,11.57
2024-01-25T20:12:13.374Z,10.77
2024-01-25T20:14:46.136Z,9.67
2024-01-25T20:17:16.828Z,10.13
2024-01-25T20:19:56.024Z,10.97
2024-01-25T20:22:28.739Z,11.23
2024-01-25T20:24:59.128Z,10.37
2024-01-25T20:27:42.627Z,9.80
2024-01-25T20:30:22.326Z,11.40
2024-01-25T20:32:58.661Z,13.07
2024-01-25T20:35:28.546Z,11.77
2024-01-25T20:38:21.314Z,11.53
2024-01-25T20:40:51.591Z,13.27
2024-01-25T20:43:26.800Z,12.97
2024-01-25T20:46:00.237Z,13.93
2024-01-25T20:48:39.665Z,13.50
2024-01-25T20:51:18.256Z,12.53
2024-01-25T20:54:01.394Z,12.63
2024-01-25T20:56:36.315Z,13.43
2024-01-25T20:59:06.289Z,13.40
2024-01-25T21:01:54.970Z,13.77
2024-01-25T21:04:31.289Z,15.53
2024-01-25T21:07:03.863Z,14.73
2024-01-25T21:09:49.361Z,14.60
2024-01-25T21:12:20.565Z,15.03
2024-01-25T21:14:51.222Z,13.73
2024-01-25T21:17:21.052Z,14.47
2024-01-25T21:19:51.041Z,12.70
2024-01-25T21:22:21.004Z,13.07
2024-01-25T21:24:55.018Z,13.40
2024-01-25T21:27:24.975Z,13.57
2024-01-25T21:29:54.913Z,12.57
2024-01-25T21:32:24.835Z,12.90
2024-01-25T21:34:54.823Z,11.77
2024-01-25T21:37:25.718Z,12.70
2024-01-25T21:39:58.265Z,12.60
2024-01-25T21:42:29.052Z,12.23
2024-01-25T21:44:58.994Z,12.00
2024-01-25T21:47:28.983Z,12.60
2024-01-25T21:49:59.051Z,12.10
2024-01-25T21:52:29.144Z,12.27
2024-01-25T21:55:02.270Z,11.93
2024-01-25T21:57:39.377Z,12.33
2024-01-25T22:00:10.740Z,12.23
2024-01-25T22:02:41.445Z,11.27
2024-01-25T22:05:14.256Z,12.10
2024-01-25T22:07:44.192Z,11.83
2024-01-25T22:10:19.646Z,11.20
2024-01-25T22:12:49.862Z,11.00
2024-01-25T22:15:20.151Z,7.10
2024-01-25T22:17:51.876Z,11.10
2024-01-25T22:20:21.939Z,10.50
2024-01-25T22:22:51.875Z,11.27
2024-01-25T22:25:28.369Z,10.60
2024-01-25T22:28:00.838Z,11.37
2024-01-25T22:30:30.983Z,11.30
2024-01-25T22:33:01.143Z,11.07
2024-01-25T22:35:31.006Z,11.70
2024-01-25T22:38:00.868Z,10.07
2024-01-25T22:40:33.325Z,11.60
2024-01-25T22:43:03.297Z,12.00
2024-01-25T22:45:33.291Z,10.50
2024-01-25T22:48:03.486Z,9.63
2024-01-25T22:50:33.486Z,11.07
2024-01-25T22:53:04.631Z,10.97
2024-01-25T22:55:37.244Z,11.67
2024-01-25T22:58:07.634Z,10.10
2024-01-25T23:00:42.167Z,13.17
2024-01-25T23:03:12.367Z,12.20
2024-01-25T23:05:42.355Z,12.43
2024-01-25T23:08:12.356Z,11.60
2024-01-25T23:10:45.107Z,12.63
2024-01-25T23:13:16.149Z,12.33
2024-01-25T23:15:46.208Z,12.20
2024-01-25T23:18:16.714Z,11.80
2024-01-25T23:20:47.246Z,12.33
2024-01-25T23:23:17.225Z,11.80
2024-01-25T23:25:50.124Z,12.47
2024-01-25T23:28:20.416Z,12.33
2024-01-25T23:30:50.360Z,11.90
2024-01-25T23:33:23.728Z,11.07
2024-01-25T23:35:54.163Z,11.77
2024-01-25T23:38:25.344Z,11.53
2024-01-25T23:41:00.814Z,11.73
2024-01-25T23:43:33.896Z,11.67
2024-01-25T23:46:04.922Z,11.13
2024-01-25T23:48:37.991Z,12.73
2024-01-25T23:51:11.407Z,13.10
2024-01-25T23:53:41.525Z,12.97
2024-01-25T23:56:14.026Z,12.43
2024-01-25T23:58:44.265Z,12.50
